Time;durP1;ratioP1;P1;durP2;ratioP2;P2;SDS_P1;SDS_P2;PMS_P1;PMS_P2;Temp;Humidity;BMP_temperature;BMP_pressure;BME280_temperature;BME280_humidity;BME280_pressure;Samples;Min_cycle;Max_cycle;Signal;HPM_P1;HPM_P2
2023/06/16 00:01:41;;;;;;;10.52;2.03;;;20.50;53.40;;;;;;5035495;28;20108;-76
2023/06/16 00:04:08;;;;;;;4.50;2.00;;;20.40;53.40;;;;;;5035610;28;20033;-76
2023/06/16 00:06:34;;;;;;;6.53;1.65;;;20.40;54.10;;;;;;5034039;28;20032;-76
2023/06/16 00:09:00;;;;;;;6.57;2.00;;;20.40;53.60;;;;;;5034145;28;20022;-76
2023/06/16 00:11:27;;;;;;;8.32;2.08;;;20.40;53.70;;;;;;5034108;28;20044;-76
2023/06/16 00:13:54;;;;;;;6.78;2.20;;;20.30;53.70;;;;;;5033906;28;20525;-76
2023/06/16 00:16:20;;;;;;;6.18;2.08;;;20.30;53.80;;;;;;5035223;28;20056;-77
2023/06/16 00:18:51;;;;;;;4.03;1.70;;;20.30;53.90;;;;;;5034054;28;20470;-76
2023/06/16 00:21:29;;;;;;;6.22;1.88;;;20.20;54.20;;;;;;5034062;28;20025;-75
2023/06/16 00:23:56;;;;;;;8.30;2.25;;;20.20;54.50;;;;;;5034902;28;20033;-75
2023/06/16 00:26:26;;;;;;;4.88;1.90;;;20.20;54.40;;;;;;5034934;28;20434;-75
2023/06/16 00:28:52;;;;;;;4.72;1.95;;;20.10;54.40;;;;;;5033899;28;20075;-76
2023/06/16 00:31:17;;;;;;;5.63;2.00;;;20.10;54.40;;;;;;5017063;28;20022;-75
2023/06/16 00:33:43;;;;;;;5.05;2.13;;;20.00;54.50;;;;;;5034845;28;20036;-75
2023/06/16 00:36:09;;;;;;;6.20;2.15;;;20.00;54.50;;;;;;5034715;28;20040;-75
2023/06/16 00:38:34;;;;;;;6.40;2.13;;;20.00;54.50;;;;;;5033723;28;20032;-75
2023/06/16 00:41:01;;;;;;;5.47;2.00;;;19.90;55.20;;;;;;5034803;28;20030;-76
2023/06/16 00:43:26;;;;;;;5.55;1.88;;;19.90;55.00;;;;;;5034646;28;20030;-75
2023/06/16 00:45:52;;;;;;;4.25;1.73;;;19.80;55.30;;;;;;5033234;28;20029;-76
2023/06/16 00:48:19;;;;;;;9.35;2.28;;;19.80;55.60;;;;;;5034431;28;20037;-75
2023/06/16 00:50:46;;;;;;;4.60;1.90;;;19.70;55.70;;;;;;5034487;28;20050;-76
2023/06/16 00:53:12;;;;;;;3.63;1.52;;;19.70;55.90;;;;;;5033158;28;20040;-76
2023/06/16 00:55:38;;;;;;;4.22;2.00;;;19.60;56.00;;;;;;5033239;28;20037;-76
2023/06/16 00:58:04;;;;;;;3.33;1.42;;;19.50;56.10;;;;;;5016581;28;20030;-75
2023/06/16 01:00:35;;;;;;;3.33;1.73;;;19.50;56.30;;;;;;5034284;28;20022;-75
2023/06/16 01:03:04;;;;;;;5.70;2.03;;;19.40;56.40;;;;;;5032852;28;20374;-75
2023/06/16 01:05:30;;;;;;;3.80;1.65;;;19.30;56.40;;;;;;5034146;28;20029;-75
2023/06/16 01:07:59;;;;;;;4.47;2.17;;;19.30;56.80;;;;;;5034253;28;20037;-75
2023/06/16 01:10:39;;;;;;;4.38;2.20;;;19.20;57.60;;;;;;5034147;28;20025;-76
2023/06/16 01:13:34;;;;;;;7.43;2.13;;;19.10;58.20;;;;;;5033833;28;20042;-76
2023/06/16 01:16:02;;;;;;;3.17;1.98;;;19.00;58.40;;;;;;5032052;28;20524;-76
2023/06/16 01:18:29;;;;;;;3.63;1.77;;;19.00;58.30;;;;;;5016282;28;20034;-75
2023/06/16 01:21:27;;;;;;;6.13;2.38;;;18.90;58.10;;;;;;5034129;28;20025;-76
2023/06/16 01:24:07;;;;;;;7.82;2.03;;;18.90;58.20;;;;;;5033518;28;20033;-76
2023/06/16 01:26:40;;;;;;;4.95;2.15;;;18.90;58.00;;;;;;5033965;28;20413;-76
2023/06/16 01:29:10;;;;;;;4.63;2.20;;;18.80;57.90;;;;;;5034187;28;20021;-77
2023/06/16 01:31:38;;;;;;;5.07;2.25;;;18.80;58.00;;;;;;5032617;28;20014;-78
2023/06/16 01:34:05;;;;;;;5.80;2.40;;;18.70;58.00;;;;;;5032591;28;20032;-78
2023/06/16 01:36:32;;;;;;;5.10;2.08;;;18.70;58.10;;;;;;5032510;28;20121;-77
2023/06/16 01:39:02;;;;;;;8.95;2.30;;;18.70;58.20;;;;;;5033663;28;20025;-77
2023/06/16 01:41:29;;;;;;;6.47;2.33;;;18.60;58.40;;;;;;5033891;28;20037;-77
2023/06/16 01:43:55;;;;;;;5.60;2.35;;;18.60;58.50;;;;;;5033505;28;20029;-77
2023/06/16 01:46:22;;;;;;;5.25;2.15;;;18.60;58.70;;;;;;5032435;28;20115;-77
2023/06/16 01:48:48;;;;;;;4.38;2.17;;;18.60;58.90;;;;;;5033666;28;20026;-77
2023/06/16 01:51:14;;;;;;;3.90;1.52;;;18.60;59.10;;;;;;5032322;28;20024;-78
2023/06/16 01:53:40;;;;;;;4.43;1.88;;;18.50;59.10;;;;;;5015828;28;20371;-77
2023/06/16 01:56:06;;;;;;;5.05;2.65;;;18.60;59.20;;;;;;5033639;28;20044;-77
2023/06/16 01:58:32;;;;;;;6.40;2.15;;;18.50;59.30;;;;;;5033554;28;20029;-78
2023/06/16 02:01:10;;;;;;;5.32;2.15;;;18.50;59.50;;;;;;5032255;28;20038;-77
2023/06/16 02:03:46;;;;;;;4.28;2.13;;;18.40;59.70;;;;;;5031925;28;20108;-77
2023/06/16 02:06:18;;;;;;;5.35;2.40;;;18.40;59.80;;;;;;5033271;28;20047;-77
2023/06/16 02:08:47;;;;;;;3.33;1.52;;;18.40;60.00;;;;;;5033184;28;20017;-77
2023/06/16 02:11:13;;;;;;;4.70;2.28;;;18.30;59.90;;;;;;5033219;28;20482;-77
2023/06/16 02:13:38;;;;;;;5.25;1.80;;;18.30;60.00;;;;;;5033080;28;20042;-77
2023/06/16 02:16:05;;;;;;;7.75;2.63;;;18.30;60.10;;;;;;5033396;28;20056;-77
2023/06/16 02:18:32;;;;;;;8.75;2.58;;;18.30;60.40;;;;;;5033154;28;20026;-77
2023/06/16 02:20:58;;;;;;;6.43;2.42;;;18.30;60.30;;;;;;5033550;28;20033;-77
2023/06/16 02:23:25;;;;;;;6.05;2.30;;;18.20;60.40;;;;;;5032966;28;20080;-77
2023/06/16 02:25:51;;;;;;;6.18;2.55;;;18.20;60.70;;;;;;5033157;28;20427;-77
2023/06/16 02:28:17;;;;;;;5.60;2.25;;;18.20;60.70;;;;;;5015425;28;20343;-77
2023/06/16 02:30:43;;;;;;;7.38;2.65;;;18.20;61.00;;;;;;5031889;28;20052;-77
2023/06/16 02:33:11;;;;;;;5.57;2.40;;;18.20;61.10;;;;;;5031979;28;20621;-77
2023/06/16 02:35:36;;;;;;;4.30;2.20;;;18.10;61.70;;;;;;5032674;28;20032;-77
2023/06/16 02:38:02;;;;;;;3.42;1.80;;;18.10;61.00;;;;;;5019361;28;20397;-77
2023/06/16 02:40:28;;;;;;;6.50;2.10;;;18.10;60.90;;;;;;5035704;28;20029;-77
2023/06/16 02:42:54;;;;;;;7.85;2.67;;;18.10;60.70;;;;;;5036948;28;20065;-77
2023/06/16 02:45:20;;;;;;;5.50;1.58;;;18.10;60.50;;;;;;5035808;28;20444;-78
2023/06/16 02:47:45;;;;;;;6.90;2.65;;;18.10;60.40;;;;;;5036817;28;20030;-78
2023/06/16 02:50:11;;;;;;;5.43;2.00;;;18.10;60.40;;;;;;5036850;28;20100;-77
2023/06/16 02:52:41;;;;;;;6.63;2.22;;;18.00;60.50;;;;;;5035522;28;20083;-77
2023/06/16 02:55:08;;;;;;;4.97;2.33;;;18.00;60.60;;;;;;5035762;28;20021;-78
2023/06/16 02:57:34;;;;;;;5.28;2.15;;;18.00;60.70;;;;;;5036742;28;20026;-78
2023/06/16 03:00:00;;;;;;;7.43;2.05;;;17.90;60.60;;;;;;5036532;28;20029;-78
2023/06/16 03:02:25;;;;;;;6.80;2.50;;;17.90;60.50;;;;;;5035431;28;20033;-78
2023/06/16 03:04:51;;;;;;;5.82;2.25;;;17.80;60.40;;;;;;5051959;28;20493;-77
2023/06/16 03:07:17;;;;;;;5.57;2.20;;;17.80;60.30;;;;;;5035718;28;20021;-78
2023/06/16 03:09:43;;;;;;;6.85;2.58;;;17.80;60.30;;;;;;5036565;28;20032;-77
2023/06/16 03:12:10;;;;;;;4.57;2.30;;;17.70;60.30;;;;;;5036570;28;20029;-78
2023/06/16 03:14:35;;;;;;;5.60;2.08;;;17.70;60.40;;;;;;5036402;28;20132;-78
2023/06/16 03:17:01;;;;;;;7.30;2.67;;;17.70;60.40;;;;;;5018742;28;20422;-78
2023/06/16 03:19:27;;;;;;;5.35;2.55;;;17.60;60.50;;;;;;5036263;28;20029;-77
2023/06/16 03:21:53;;;;;;;5.22;1.95;;;17.60;60.70;;;;;;5036458;28;20389;-78
2023/06/16 03:24:19;;;;;;;4.53;2.35;;;17.60;60.90;;;;;;5036282;28;20029;-78
2023/06/16 03:26:46;;;;;;;4.28;2.30;;;17.50;61.00;;;;;;5034925;28;20456;-77
2023/06/16 03:29:12;;;;;;;4.60;1.90;;;17.50;61.10;;;;;;5036163;28;20052;-77
2023/06/16 03:31:39;;;;;;;7.85;2.33;;;17.50;61.30;;;;;;5034806;28;20020;-77
2023/06/16 03:34:05;;;;;;;4.55;2.20;;;17.50;61.40;;;;;;5040681;28;20025;-77
2023/06/16 03:36:39;;;;;;;5.60;2.55;;;17.40;61.50;;;;;;5054525;28;20033;-78
2023/06/16 03:39:05;;;;;;;5.82;2.60;;;17.30;61.70;;;;;;5054120;28;20033;-77
2023/06/16 03:41:33;;;;;;;4.70;2.33;;;17.40;61.90;;;;;;5055704;28;20036;-78
2023/06/16 03:43:59;;;;;;;5.50;2.70;;;17.30;62.00;;;;;;5054154;28;20117;-78
2023/06/16 03:46:26;;;;;;;5.43;2.30;;;17.30;62.30;;;;;;5054523;28;20017;-77
2023/06/16 03:48:51;;;;;;;5.47;2.33;;;17.30;62.50;;;;;;5054925;28;20028;-77
2023/06/16 03:51:17;;;;;;;5.25;2.33;;;17.30;62.60;;;;;;5037830;28;20385;-77
2023/06/16 03:53:43;;;;;;;4.75;2.45;;;17.30;62.70;;;;;;5055578;28;20099;-77
2023/06/16 03:56:09;;;;;;;6.13;2.88;;;17.30;62.80;;;;;;5055673;28;20025;-77
2023/06/16 03:58:35;;;;;;;5.28;2.53;;;17.30;62.80;;;;;;5055384;28;20037;-77
2023/06/16 04:01:02;;;;;;;5.65;2.60;;;17.30;63.00;;;;;;5055577;28;20028;-78
2023/06/16 04:03:27;;;;;;;7.82;2.78;;;17.30;63.10;;;;;;5055372;28;20504;-78
2023/06/16 04:05:53;;;;;;;5.40;2.35;;;17.30;63.20;;;;;;5054065;28;20026;-78
2023/06/16 04:08:20;;;;;;;5.82;3.13;;;17.30;63.20;;;;;;5054174;28;20029;-78
2023/06/16 04:10:45;;;;;;;6.97;2.67;;;17.30;63.30;;;;;;5054014;28;20539;-78
2023/06/16 04:13:11;;;;;;;6.70;2.80;;;17.20;63.30;;;;;;5053785;28;20045;-78
2023/06/16 04:15:37;;;;;;;6.32;2.63;;;17.20;63.40;;;;;;5051542;28;20391;-78
2023/06/16 04:18:03;;;;;;;4.57;2.30;;;17.20;64.10;;;;;;5052821;28;20025;-78
2023/06/16 04:20:28;;;;;;;6.38;2.63;;;17.20;63.50;;;;;;5052553;28;20029;-78
2023/06/16 04:22:54;;;;;;;4.68;2.38;;;17.20;63.60;;;;;;5051862;28;20036;-78
2023/06/16 04:25:21;;;;;;;7.68;2.40;;;17.10;63.60;;;;;;5053653;28;20036;-78
2023/06/16 04:27:49;;;;;;;6.18;2.30;;;17.10;63.70;;;;;;5053456;28;20474;-78
2023/06/16 04:30:20;;;;;;;6.43;2.15;;;17.10;63.70;;;;;;5054820;28;20421;-78
2023/06/16 04:32:46;;;;;;;5.90;2.17;;;17.10;63.80;;;;;;5054721;28;20048;-78
2023/06/16 04:35:11;;;;;;;5.45;3.10;;;17.10;63.80;;;;;;5053601;28;20056;-79
2023/06/16 04:37:37;;;;;;;6.38;2.70;;;17.10;63.90;;;;;;5053463;28;20025;-78
2023/06/16 04:40:05;;;;;;;5.38;2.55;;;17.10;64.00;;;;;;5036915;28;20059;-78
2023/06/16 04:42:30;;;;;;;5.28;2.45;;;17.10;64.10;;;;;;5020854;28;20025;-78
2023/06/16 04:44:58;;;;;;;6.35;2.38;;;17.10;64.20;;;;;;5053425;28;20033;-78
2023/06/16 04:47:24;;;;;;;5.68;2.92;;;17.20;64.20;;;;;;5053191;28;20033;-79
2023/06/16 04:49:50;;;;;;;8.00;3.13;;;17.20;64.20;;;;;;5036721;28;20032;-79
2023/06/16 04:52:15;;;;;;;7.15;2.80;;;17.20;64.30;;;;;;5053384;28;20469;-79
2023/06/16 04:54:41;;;;;;;7.00;3.38;;;17.20;65.10;;;;;;5054493;28;20119;-79
2023/06/16 04:57:07;;;;;;;8.23;2.63;;;17.30;64.60;;;;;;5036308;28;20043;-79
2023/06/16 04:59:33;;;;;;;8.10;3.00;;;17.30;64.50;;;;;;5053305;28;20032;-79
2023/06/16 05:01:59;;;;;;;8.70;2.45;;;17.30;64.30;;;;;;5054253;28;20091;-79
2023/06/16 05:04:24;;;;;;;8.23;2.72;;;17.30;64.10;;;;;;5054012;28;20107;-78
2023/06/16 05:06:50;;;;;;;5.78;2.72;;;17.30;63.90;;;;;;5052980;28;20527;-78
2023/06/16 05:09:16;;;;;;;5.00;2.53;;;17.30;63.90;;;;;;5052818;28;20032;-78
2023/06/16 05:11:42;;;;;;;5.88;2.60;;;17.30;64.00;;;;;;5050110;28;20082;-78
2023/06/16 05:14:08;;;;;;;5.63;2.45;;;17.40;64.00;;;;;;5026022;28;20081;-79
2023/06/16 05:16:34;;;;;;;8.02;3.17;;;17.40;64.00;;;;;;5032624;28;20051;-79
2023/06/16 05:18:59;;;;;;;4.57;2.38;;;17.40;64.00;;;;;;5052290;28;20045;-79
2023/06/16 05:21:25;;;;;;;6.65;2.53;;;17.50;64.10;;;;;;5042130;28;20044;-79
2023/06/16 05:23:54;;;;;;;5.40;2.50;;;17.50;64.10;;;;;;5035767;28;20044;-79
2023/06/16 05:26:22;;;;;;;5.43;2.25;;;17.50;64.10;;;;;;5042555;28;20025;-79
2023/06/16 05:28:48;;;;;;;6.13;2.45;;;17.60;64.20;;;;;;5010191;28;20021;-79
2023/06/16 05:31:14;;;;;;;7.75;2.63;;;17.60;64.20;;;;;;5040645;28;20032;-79
2023/06/16 05:33:39;;;;;;;7.78;2.90;;;17.60;64.30;;;;;;5039891;28;20045;-79
2023/06/16 05:36:05;;;;;;;7.53;3.05;;;17.60;64.30;;;;;;5030574;28;20029;-79
2023/06/16 05:38:31;;;;;;;6.20;2.63;;;17.70;64.40;;;;;;5037511;28;20147;-78
2023/06/16 05:40:57;;;;;;;7.63;2.85;;;17.70;64.50;;;;;;5044700;28;20443;-79
2023/06/16 05:43:23;;;;;;;10.18;2.90;;;17.80;64.60;;;;;;5041681;28;20065;-79
2023/06/16 05:45:48;;;;;;;4.68;2.55;;;17.80;64.80;;;;;;5042582;28;20112;-79
2023/06/16 05:48:14;;;;;;;6.32;2.60;;;17.80;64.80;;;;;;5041858;28;20052;-79
2023/06/16 05:50:40;;;;;;;6.10;2.60;;;17.90;64.80;;;;;;5042220;28;20036;-79
2023/06/16 05:53:05;;;;;;;4.35;2.33;;;17.90;64.80;;;;;;5044575;28;20462;-79
2023/06/16 05:55:31;;;;;;;4.55;2.45;;;17.90;65.10;;;;;;5027805;28;20029;-79
2023/06/16 05:57:57;;;;;;;5.40;3.00;;;18.00;65.60;;;;;;5041187;28;20032;-78
2023/06/16 06:00:23;;;;;;;8.05;2.22;;;18.00;65.70;;;;;;5035981;28;20045;-79
2023/06/16 06:02:48;;;;;;;6.88;2.90;;;18.00;65.70;;;;;;5032120;28;20037;-78
2023/06/16 06:05:15;;;;;;;5.68;2.88;;;18.10;65.80;;;;;;5033306;28;20041;-77
2023/06/16 06:07:41;;;;;;;6.25;2.70;;;18.10;65.70;;;;;;5033288;28;20466;-78
2023/06/16 06:10:07;;;;;;;5.38;2.35;;;18.10;65.70;;;;;;5032961;28;20040;-78
2023/06/16 06:12:32;;;;;;;7.18;2.30;;;18.20;65.70;;;;;;5033217;28;20029;-78
2023/06/16 06:14:58;;;;;;;4.55;2.45;;;18.20;65.40;;;;;;5043616;28;20056;-79
2023/06/16 06:17:24;;;;;;;4.20;2.40;;;18.30;65.20;;;;;;5052776;28;20021;-78
2023/06/16 06:19:49;;;;;;;7.63;2.60;;;18.30;65.20;;;;;;5052819;28;20051;-79
2023/06/16 06:22:15;;;;;;;6.50;2.28;;;18.30;65.40;;;;;;5052774;28;20426;-79
2023/06/16 06:24:41;;;;;;;4.00;2.17;;;18.40;65.40;;;;;;5031824;28;20047;-79
2023/06/16 06:27:10;;;;;;;5.55;2.53;;;18.40;65.10;;;;;;5033203;28;20037;-79
2023/06/16 06:29:36;;;;;;;5.07;2.20;;;18.40;64.80;;;;;;5031503;28;20029;-79
2023/06/16 06:32:03;;;;;;;4.93;2.20;;;18.50;64.70;;;;;;5031503;28;20060;-79
2023/06/16 06:34:28;;;;;;;5.63;2.78;;;18.50;64.50;;;;;;5032803;28;20053;-76
2023/06/16 06:36:54;;;;;;;4.18;2.20;;;18.50;64.50;;;;;;5031582;28;20509;-77
2023/06/16 06:39:20;;;;;;;9.00;2.53;;;18.60;64.60;;;;;;5015339;28;20037;-77
2023/06/16 06:41:46;;;;;;;5.05;2.22;;;18.60;64.60;;;;;;5031558;28;20037;-78
2023/06/16 06:44:12;;;;;;;5.10;2.40;;;18.60;64.40;;;;;;5031397;28;20056;-77
2023/06/16 06:46:37;;;;;;;5.68;2.33;;;18.60;64.30;;;;;;5044927;28;20025;-80
2023/06/16 06:49:03;;;;;;;5.45;2.25;;;18.60;64.40;;;;;;5034878;28;20159;-79
2023/06/16 06:51:29;;;;;;;4.75;2.00;;;18.60;64.20;;;;;;5051629;28;20477;-80
2023/06/16 06:53:54;;;;;;;5.10;2.92;;;18.60;64.20;;;;;;5051384;28;20485;-80
2023/06/16 06:56:22;;;;;;;5.72;2.25;;;18.70;64.20;;;;;;5052607;28;20032;-80
2023/06/16 06:58:48;;;;;;;5.63;2.63;;;18.70;64.20;;;;;;5051213;28;20397;-79
2023/06/16 07:01:14;;;;;;;5.97;2.28;;;18.70;64.40;;;;;;5051350;28;20032;-79
2023/06/16 07:03:39;;;;;;;10.38;2.65;;;18.70;64.40;;;;;;5052529;28;20370;-79
2023/06/16 07:06:05;;;;;;;6.63;2.85;;;18.80;64.40;;;;;;5051319;28;20363;-79
2023/06/16 07:08:31;;;;;;;4.68;2.63;;;18.80;64.60;;;;;;5052761;28;20036;-79
2023/06/16 07:10:58;;;;;;;6.38;2.17;;;18.90;64.90;;;;;;5051422;28;20044;-79
2023/06/16 07:13:23;;;;;;;4.68;2.42;;;18.90;64.60;;;;;;5052461;28;20060;-79
2023/06/16 07:15:49;;;;;;;5.55;2.65;;;18.90;64.50;;;;;;5040841;28;20067;-77
2023/06/16 07:18:14;;;;;;;6.25;2.53;;;19.00;64.70;;;;;;5036603;28;20068;-79
2023/06/16 07:20:40;;;;;;;8.20;2.55;;;19.00;64.70;;;;;;5022020;28;20057;-79
2023/06/16 07:23:06;;;;;;;11.38;3.03;;;19.00;64.70;;;;;;5024690;28;20116;-79
2023/06/16 07:25:35;;;;;;;5.22;2.80;;;19.10;64.60;;;;;;5040698;28;20033;-79
2023/06/16 07:28:02;;;;;;;6.78;2.63;;;19.10;64.40;;;;;;5036019;28;20028;-80
2023/06/16 07:30:27;;;;;;;6.88;2.75;;;19.20;64.60;;;;;;5039419;28;20500;-79
2023/06/16 07:32:54;;;;;;;4.00;2.30;;;19.20;64.70;;;;;;5043693;28;20029;-79
2023/06/16 07:35:20;;;;;;;6.43;2.33;;;19.30;64.60;;;;;;5035674;28;20045;-79
2023/06/16 07:37:45;;;;;;;4.63;2.28;;;19.30;64.40;;;;;;5018003;28;20116;-79
2023/06/16 07:40:13;;;;;;;4.40;2.30;;;19.40;64.00;;;;;;5034621;28;20060;-79
2023/06/16 07:42:41;;;;;;;6.43;2.40;;;19.50;63.70;;;;;;5045288;28;20037;-79
2023/06/16 07:45:07;;;;;;;4.80;2.42;;;19.50;63.00;;;;;;5041367;28;20030;-79
2023/06/16 07:47:32;;;;;;;4.20;2.17;;;19.60;62.30;;;;;;5034373;28;20028;-79
2023/06/16 07:49:58;;;;;;;4.82;1.98;;;19.70;61.50;;;;;;5035578;28;20026;-79
2023/06/16 07:52:23;;;;;;;4.72;2.50;;;19.80;60.80;;;;;;5040667;28;20033;-79
2023/06/16 07:54:49;;;;;;;3.97;1.75;;;19.80;59.80;;;;;;5042154;28;20486;-79
2023/06/16 07:57:15;;;;;;;5.18;2.08;;;19.90;59.30;;;;;;5025584;28;20044;-78
2023/06/16 07:59:40;;;;;;;4.40;2.10;;;20.00;58.90;;;;;;5045321;28;20393;-78
2023/06/16 08:02:06;;;;;;;3.78;1.95;;;20.10;59.00;;;;;;5033487;28;20128;-78
2023/06/16 08:04:31;;;;;;;7.15;2.47;;;20.20;59.10;;;;;;5026667;28;20025;-78
2023/06/16 08:06:57;;;;;;;4.80;2.35;;;20.20;59.20;;;;;;5020803;28;20025;-78
2023/06/16 08:09:23;;;;;;;5.47;2.10;;;20.30;59.20;;;;;;5055090;28;20033;-78
2023/06/16 08:11:49;;;;;;;3.17;1.70;;;20.40;58.90;;;;;;5055138;28;20485;-78
2023/06/16 08:14:15;;;;;;;5.35;2.50;;;20.50;58.60;;;;;;5053605;28;20098;-78
2023/06/16 08:16:41;;;;;;;5.38;1.85;;;20.50;58.00;;;;;;5055211;28;20040;-78
2023/06/16 08:19:08;;;;;;;5.40;2.15;;;20.60;57.70;;;;;;5055001;28;20033;-79
2023/06/16 08:21:34;;;;;;;6.35;2.25;;;20.70;57.30;;;;;;5053655;28;20397;-78
2023/06/16 08:24:01;;;;;;;4.00;2.45;;;20.80;57.10;;;;;;5054973;28;20029;-79
2023/06/16 08:26:27;;;;;;;4.78;2.13;;;20.80;56.90;;;;;;5053568;28;20032;-79
2023/06/16 08:28:53;;;;;;;3.50;2.13;;;20.90;56.50;;;;;;5053639;28;20013;-78
2023/06/16 08:31:19;;;;;;;3.63;2.10;;;21.00;56.30;;;;;;5053500;28;20497;-78
2023/06/16 08:33:44;;;;;;;5.18;2.42;;;21.10;56.20;;;;;;5054538;28;20382;-78
2023/06/16 08:36:10;;;;;;;4.35;2.38;;;21.10;56.20;;;;;;5053591;28;20033;-79
2023/06/16 08:38:36;;;;;;;5.15;2.38;;;21.20;55.80;;;;;;5036925;28;20116;-79
2023/06/16 08:41:08;;;;;;;6.47;2.25;;;21.30;55.60;;;;;;5054669;28;20419;-79
2023/06/16 08:43:37;;;;;;;4.40;2.25;;;21.30;55.40;;;;;;5054513;28;20086;-79
2023/06/16 08:46:08;;;;;;;7.10;2.17;;;21.40;55.20;;;;;;5054592;28;20108;-79
2023/06/16 08:48:40;;;;;;;4.55;2.55;;;21.50;55.10;;;;;;5054442;28;20049;-79
2023/06/16 08:51:09;;;;;;;4.00;2.20;;;21.60;55.10;;;;;;5045542;28;20029;-79
2023/06/16 08:53:38;;;;;;;5.75;2.55;;;21.70;55.10;;;;;;5046819;28;20045;-79
2023/06/16 08:56:07;;;;;;;3.70;2.10;;;21.80;54.50;;;;;;5033231;28;20022;-78
2023/06/16 08:58:37;;;;;;;5.07;2.63;;;22.00;54.20;;;;;;5034223;28;20075;-77
2023/06/16 09:01:03;;;;;;;5.90;2.78;;;22.00;53.60;;;;;;5034341;28;20021;-77
2023/06/16 09:03:32;;;;;;;4.25;2.55;;;22.10;53.30;;;;;;5016671;28;20022;-78
2023/06/16 09:06:01;;;;;;;3.75;2.33;;;22.20;52.90;;;;;;5016971;28;20121;-77
2023/06/16 09:08:27;;;;;;;4.45;2.20;;;22.30;52.80;;;;;;5034649;28;20116;-78
2023/06/16 09:10:54;;;;;;;7.38;2.78;;;22.40;52.70;;;;;;5054680;28;20037;-78
2023/06/16 09:13:20;;;;;;;4.57;2.47;;;22.50;52.50;;;;;;5039251;28;20036;-78
2023/06/16 09:15:47;;;;;;;4.93;2.17;;;22.50;52.00;;;;;;5042386;28;20054;-78
2023/06/16 09:18:14;;;;;;;4.35;2.20;;;22.70;51.90;;;;;;5033965;28;20029;-79
2023/06/16 09:20:41;;;;;;;5.28;2.55;;;22.70;51.50;;;;;;5032588;28;20033;-80
2023/06/16 09:23:08;;;;;;;4.05;2.20;;;22.80;51.20;;;;;;5016372;28;20112;-80
2023/06/16 09:25:35;;;;;;;8.00;2.60;;;22.90;51.20;;;;;;5034257;28;20048;-80
2023/06/16 09:28:09;;;;;;;4.55;2.50;;;23.00;51.10;;;;;;5032728;28;20022;-79
2023/06/16 09:30:35;;;;;;;4.15;2.20;;;23.10;50.80;;;;;;5016189;28;20116;-80
2023/06/16 09:33:01;;;;;;;5.15;2.30;;;23.20;50.40;;;;;;5033760;28;20029;-80
2023/06/16 09:35:29;;;;;;;4.40;2.72;;;23.30;50.30;;;;;;5032339;28;20029;-81
2023/06/16 09:37:57;;;;;;;6.90;2.58;;;23.40;50.00;;;;;;5033621;28;20033;-79
2023/06/16 09:40:30;;;;;;;4.32;2.70;;;23.50;49.60;;;;;;5033597;28;20504;-80
2023/06/16 09:43:00;;;;;;;5.75;2.10;;;23.60;49.30;;;;;;5033252;28;20021;-80
2023/06/16 09:45:33;;;;;;;5.28;2.13;;;23.70;49.20;;;;;;5032738;28;20018;-82
2023/06/16 09:48:10;;;;;;;3.75;2.22;;;23.80;48.90;;;;;;5032267;28;20026;-80
2023/06/16 09:50:37;;;;;;;3.75;2.00;;;23.80;48.40;;;;;;5032184;28;20478;-79
2023/06/16 09:53:07;;;;;;;4.35;2.20;;;24.00;48.20;;;;;;5033368;28;20034;-81
2023/06/16 09:55:40;;;;;;;7.10;3.03;;;24.00;47.70;;;;;;5045675;28;20043;-82
2023/06/16 09:58:06;;;;;;;7.25;2.55;;;24.00;47.40;;;;;;5040929;28;20075;-80
2023/06/16 10:00:33;;;;;;;2.92;1.77;;;24.10;46.60;;;;;;4998837;28;20057;-79
2023/06/16 10:03:00;;;;;;;4.18;1.90;;;24.20;46.40;;;;;;5032583;28;20022;-80
2023/06/16 10:05:32;;;;;;;3.70;1.90;;;24.30;46.30;;;;;;5048339;28;20026;-80
2023/06/16 10:07:58;;;;;;;3.38;1.77;;;24.30;46.00;;;;;;5032897;28;20545;-78
2023/06/16 10:10:29;;;;;;;3.90;2.17;;;24.50;46.00;;;;;;5031412;28;20132;-79
2023/06/16 10:12:56;;;;;;;5.90;1.70;;;24.50;45.60;;;;;;5035628;28;20033;-79
2023/06/16 10:15:23;;;;;;;7.13;2.22;;;24.60;45.60;;;;;;5040912;28;20406;-82
2023/06/16 10:17:50;;;;;;;5.53;2.00;;;24.60;45.50;;;;;;5038151;28;20034;-81
2023/06/16 10:20:18;;;;;;;5.13;1.70;;;24.60;45.20;;;;;;5031899;28;20021;-79
2023/06/16 10:22:45;;;;;;;3.60;1.98;;;24.70;45.00;;;;;;5033162;28;20036;-81
2023/06/16 10:25:11;;;;;;;3.58;2.10;;;24.70;45.00;;;;;;5045135;28;20383;-80
2023/06/16 10:27:40;;;;;;;4.82;2.05;;;24.80;45.20;;;;;;5035081;28;20063;-81
2023/06/16 10:30:09;;;;;;;4.15;2.42;;;24.80;45.20;;;;;;5052727;28;20093;-80
2023/06/16 10:32:35;;;;;;;4.45;1.77;;;24.90;45.30;;;;;;5051785;28;20029;-82
2023/06/16 10:35:01;;;;;;;4.18;2.00;;;25.00;45.00;;;;;;5052676;28;20483;-80
2023/06/16 10:37:28;;;;;;;7.38;2.10;;;25.10;44.90;;;;;;5052796;28;20060;-80
2023/06/16 10:40:06;;;;;;;5.10;2.15;;;25.20;44.90;;;;;;5044881;28;20473;-81
2023/06/16 10:42:35;;;;;;;3.92;1.90;;;25.30;44.50;;;;;;5042818;28;20033;-79
2023/06/16 10:45:28;;;;;;;3.03;1.85;;;25.50;45.00;;;;;;5042878;28;20025;-79
2023/06/16 10:48:03;;;;;;;4.30;1.73;;;25.60;43.80;;;;;;5051634;28;20013;-81
2023/06/16 10:50:58;;;;;;;3.83;1.80;;;25.80;43.70;;;;;;5035255;28;20071;-81
2023/06/16 10:53:24;;;;;;;3.95;2.30;;;26.00;43.10;;;;;;5052227;28;20021;-80
2023/06/16 10:56:04;;;;;;;4.80;2.08;;;26.10;43.10;;;;;;5051506;28;20048;-80
2023/06/16 10:58:30;;;;;;;4.03;2.08;;;26.40;42.60;;;;;;5054703;28;20489;-80
2023/06/16 11:01:24;;;;;;;3.90;1.83;;;26.50;42.60;;;;;;5044767;28;20056;-80
2023/06/16 11:03:59;;;;;;;3.15;1.85;;;26.80;42.40;;;;;;5034302;28;20041;-80
2023/06/16 11:06:26;;;;;;;3.15;1.63;;;27.10;42.10;;;;;;5036084;28;20067;-80
2023/06/16 11:08:56;;;;;;;4.22;2.00;;;27.30;42.00;;;;;;5049304;28;20443;-81
2023/06/16 11:11:31;;;;;;;4.00;1.50;;;27.50;41.60;;;;;;5056221;28;20029;-80
2023/06/16 11:13:57;;;;;;;5.00;1.85;;;27.70;41.40;;;;;;5056024;28;20025;-81
2023/06/16 11:16:23;;;;;;;3.38;1.98;;;27.90;41.20;;;;;;5056327;28;20032;-81
2023/06/16 11:18:50;;;;;;;3.67;2.13;;;28.10;40.80;;;;;;5054922;28;20075;-81
2023/06/16 11:21:16;;;;;;;2.97;1.63;;;28.30;40.40;;;;;;5056201;28;20033;-81
2023/06/16 11:23:43;;;;;;;4.78;2.38;;;28.50;40.10;;;;;;5055006;28;20374;-82
2023/06/16 11:26:18;;;;;;;5.60;2.40;;;28.80;39.80;;;;;;5056150;28;20474;-82
2023/06/16 11:28:44;;;;;;;5.45;2.15;;;29.00;39.50;;;;;;5054897;28;20025;-81
2023/06/16 11:31:11;;;;;;;4.75;1.85;;;29.20;39.20;;;;;;5036575;28;20230;-80
2023/06/16 11:33:38;;;;;;;5.18;1.80;;;29.30;38.90;;;;;;5035434;28;20026;-80
2023/06/16 11:36:20;;;;;;;3.80;1.90;;;29.60;38.90;;;;;;5036293;28;20052;-82
2023/06/16 11:38:49;;;;;;;2.78;1.83;;;29.80;38.40;;;;;;5034962;28;20034;-82
2023/06/16 11:41:23;;;;;;;4.78;1.83;;;30.10;38.40;;;;;;5035905;28;20021;-82
2023/06/16 11:43:52;;;;;;;3.88;1.70;;;30.30;38.20;;;;;;5035847;28;20116;-81
2023/06/16 11:46:26;;;;;;;5.53;1.73;;;30.40;38.10;;;;;;5035908;28;20027;-81
2023/06/16 11:48:52;;;;;;;3.00;1.80;;;30.60;37.80;;;;;;5035586;28;20037;-81
2023/06/16 11:51:19;;;;;;;5.50;1.90;;;30.70;37.70;;;;;;5034483;28;20474;-82
2023/06/16 11:53:46;;;;;;;3.65;1.73;;;30.80;37.60;;;;;;5040839;28;20037;-81
2023/06/16 11:56:14;;;;;;;3.08;1.50;;;31.00;37.70;;;;;;5043616;28;20064;-82
2023/06/16 11:58:42;;;;;;;3.95;1.67;;;31.10;37.50;;;;;;5044515;28;20146;-81
2023/06/16 12:01:12;;;;;;;5.22;1.75;;;31.30;37.40;;;;;;5044288;28;20022;-82
2023/06/16 12:03:38;;;;;;;3.63;1.65;;;31.50;37.40;;;;;;5039149;28;20033;-82
2023/06/16 12:06:06;;;;;;;3.63;1.50;;;31.60;37.50;;;;;;5034350;28;20030;-78
2023/06/16 12:08:46;;;;;;;3.47;1.90;;;31.90;37.30;;;;;;5033967;28;20168;-78
2023/06/16 12:11:21;;;;;;;4.63;1.67;;;32.00;36.60;;;;;;5017875;28;20492;-80
2023/06/16 12:13:47;;;;;;;3.40;2.10;;;32.00;36.40;;;;;;5035367;28;20091;-79
2023/06/16 12:16:14;;;;;;;3.88;1.77;;;32.00;36.40;;;;;;5017307;28;20124;-80
2023/06/16 12:18:40;;;;;;;3.78;2.28;;;32.10;36.30;;;;;;5048968;28;20036;-80
2023/06/16 12:21:23;;;;;;;3.63;1.83;;;32.20;36.00;;;;;;5052072;28;20388;-79
2023/06/16 12:23:53;;;;;;;3.58;1.80;;;32.40;35.80;;;;;;5053079;28;20025;-80
2023/06/16 12:26:32;;;;;;;3.15;1.77;;;32.60;35.80;;;;;;5036454;28;20018;-76
2023/06/16 12:29:00;;;;;;;4.35;1.45;;;32.90;35.70;;;;;;5055250;28;20477;-78
2023/06/16 12:31:28;;;;;;;3.85;1.75;;;33.00;35.60;;;;;;5054917;28;20021;-77
2023/06/16 12:33:55;;;;;;;2.70;1.58;;;33.20;35.50;;;;;;5054998;28;20473;-80
2023/06/16 12:36:22;;;;;;;4.78;1.58;;;33.30;35.20;;;;;;5055022;28;20139;-79
2023/06/16 12:38:48;;;;;;;3.97;1.73;;;33.30;34.90;;;;;;5053521;28;20086;-79
2023/06/16 12:41:15;;;;;;;3.00;1.67;;;33.30;34.70;;;;;;5053530;28;20025;-79
2023/06/16 12:43:47;;;;;;;2.72;1.58;;;33.40;34.50;;;;;;5054496;28;20416;-80
2023/06/16 12:46:13;;;;;;;4.15;1.58;;;33.50;34.20;;;;;;5054662;28;20181;-79
2023/06/16 12:48:38;;;;;;;2.63;1.52;;;33.40;34.10;;;;;;5046469;28;20116;-78